Home > Products > Valid Products > TAF

000
FTUS46 KOTX 230520
TAFEAT
TAF
KEAT 230520Z 2306/2406 26004KT P6SM SCT015 BKN060 OVC100
     FM230900 VRB04KT P6SM VCSH FEW007 BKN015 OVC050
     FM231800 28009KT P6SM SCT015 BKN050
     FM232100 29014G22KT P6SM SCT070 BKN100
     FM240200 30008KT P6SM FEW080=



000
FTUS46 KOTX 230520
TAFSFF
TAF
KSFF 230520Z 2306/2406 15009KT P6SM -RA BKN040 OVC070 WS020/23040KT
     FM231100 22010KT P6SM VCSH BKN020 OVC035
     FM232000 22014G20KT P6SM VCSH SCT025 BKN040
     FM240200 23010KT P6SM BKN050=



000
FTUS46 KOTX 230520
TAFGEG
TAF
KGEG 230520Z 2306/2406 16015KT P6SM -RA BKN035 OVC060 WS020/23040KT
     FM231100 19014G20KT P6SM VCSH FEW010 BKN015 OVC030
     FM231900 20018G26KT P6SM VCSH FEW015 SCT030 BKN040
     FM240200 22015KT P6SM BKN050=



000
FTUS46 KOTX 230520
TAFPUW
TAF
KPUW 230520Z 2306/2406 15012KT P6SM -RA SCT030 OVC050 WS020/24035KT
     FM231200 20016KT P6SM -RA BKN035 OVC050
     FM231900 23016G22KT P6SM -SHRA SCT040 BKN060
     FM240200 25008KT P6SM VCSH SCT050 BKN080=



000
FTUS46 KOTX 230520
TAFLWS
TAF
KLWS 230520Z 2306/2406 17010KT P6SM SCT060 OVC080 WS020/24035KT
     FM231500 17012KT P6SM VCSH SCT050 OVC090
     FM232200 25012G18KT P6SM VCSH SCT060 BKN090
     FM240200 24005KT P6SM SCT060 BKN100=



000
FTUS46 KOTX 230520
TAFCOE
TAF
KCOE 230520Z 2306/2406 15006KT P6SM -RA SCT030 OVC050 WS015/24035KT
     FM231000 18007KT 5SM RA BR OVC015 WS015/24035KT
     FM231500 23015G25KT P6SM VCSH BKN020 OVC035
     FM232100 21013KT P6SM -SHRA SCT030 BKN040
     FM240300 23009KT P6SM SCT040 BKN050 OVC080
      AMD LTD TO CLD AND VIS=



000
FTUS46 KOTX 230520
TAFMWH
TAF
KMWH 230520Z 2306/2406 16016KT P6SM -RA SCT060 OVC090
     FM231000 19010KT P6SM VCSH SCT020 BKN030 OVC060
     FM231300 17005KT P6SM SCT010 BKN020 OVC060
     FM231900 22018G26KT P6SM SCT025 BKN070
     FM240200 22011KT P6SM SCT070 SCT120=



000
FTUS46 KOTX 230245 AAA
TAFMWH
TAF AMD
KMWH 230245Z 2303/2324 16014KT P6SM -RA SCT050 OVC070
     FM231000 19010KT P6SM VCSH SCT030 OVC060
     FM231300 17005KT P6SM SCT010 BKN020 OVC060
     FM232000 22015G22KT P6SM SCT025 BKN070=



000
FTUS46 KOTX 230202 AAA
TAFEAT
TAF AMD
KEAT 230202Z 2302/2324 28004KT 5SM -RA BR BKN009 OVC015
     FM230900 30004KT P6SM VCSH FEW007 BKN015 OVC050
     FM231600 31009KT P6SM SCT015 BKN050
     FM232100 29013KT P6SM SCT070 BKN100=



000
FTUS46 KOTX 230202 AAA
TAFEAT
TAF AMD
KEAT 230202Z 2302/2324 28004KT 5SM -RA BR BKN009 OVC015
     FM230900 30004KT P6SM VCSH FEW007 BKN015 OVC050
     FM231600 31009KT P6SM SCT015 BKN050
     FM232100 29013KT P6SM SCT070 BKN100=



000
FTUS46 KOTX 230045 AAA
TAFLWS
TAF AMD
KLWS 230045Z 2301/2324 17015KT P6SM VCSH SCT040 BKN080 OVC100
     FM230300 17012KT P6SM -RA SCT030 OVC050 WS020/24035KT
     FM231500 17012KT P6SM VCSH SCT050 OVC090
     FM232200 25012G18KT P6SM SCT060 BKN090=



000
FTUS46 KOTX 230045 AAA
TAFLWS
TAF AMD
KLWS 230045Z 2301/2324 17015KT P6SM VCSH SCT040 BKN080 OVC100
     FM230300 17012KT P6SM -RA SCT030 OVC050 WS020/24035KT
     FM231500 17012KT P6SM VCSH SCT050 OVC090
     FM232200 25012G18KT P6SM SCT060 BKN090=



000
FTUS46 KOTX 222330
TAFPUW
TAF
KPUW 222330Z 2300/2324 15015KT P6SM VCSH BKN050 OVC080
     FM230300 15012KT 6SM -RA BKN030 OVC050 WS020/24035KT
     FM231200 20016KT P6SM -RA BKN035 OVC050
     FM231900 23016G22KT P6SM -SHRA SCT040 BKN060=



000
FTUS46 KOTX 222330
TAFMWH
TAF
KMWH 222330Z 2300/2324 19010KT P6SM -RA SCT025 OVC050
      TEMPO 2302/2306 5SM RA BR BKN025 OVC040
     FM231000 20010KT P6SM VCSH SCT030 OVC060
     FM231300 17005KT P6SM SCT010 BKN020 OVC060
     FM232000 22015G22KT P6SM SCT025 BKN070=



000
FTUS46 KOTX 222330
TAFSFF
TAF
KSFF 222330Z 2300/2324 19010KT P6SM -RA SCT040 OVC060
     FM230500 18007KT 6SM -RA BR SCT020 OVC035 WS015/23040KT
     FM231400 22012KT P6SM VCSH BKN020 OVC035
     FM232000 22014G20KT P6SM SCT025 BKN040=



000
FTUS46 KOTX 222330
TAFCOE
TAF
KCOE 222330Z 2300/2324 18006KT P6SM -RA SCT030 OVC050
     FM230700 15011KT 6SM -RA BR SCT020 OVC040 WS015/24035KT
     FM231000 18007KT 5SM RA BR OVC015 WS015/24035KT
     FM231500 23015G25KT P6SM VCSH BKN020 OVC035
     FM232100 21013KT P6SM -SHRA SCT030 BKN040
      AMD LTD TO CLD AND VIS=



000
FTUS46 KOTX 222330
TAFEAT
TAF
KEAT 222330Z 2300/2324 28005KT 5SM -RA BR BKN015 OVC025
     FM230800 30007KT P6SM VCSH FEW007 BKN015 OVC050
     FM231600 31009KT P6SM SCT015 BKN050
     FM232100 29013KT P6SM SCT070 BKN100=



000
FTUS46 KOTX 222330
TAFLWS
TAF
KLWS 222330Z 2300/2324 10006KT P6SM VCSH SCT040 BKN080 OVC100
     FM230300 17009KT P6SM -RA SCT030 OVC050 WS020/24035KT
     FM231500 17012KT P6SM VCSH SCT050 OVC090
     FM232200 25012G18KT P6SM SCT060 BKN090=



000
FTUS46 KOTX 222330
TAFGEG
TAF
KGEG 222330Z 2300/2324 19011KT P6SM -RA OVC045
     FM230500 16015G22KT 6SM -RA BR BKN025 OVC040 WS010/23040KT
     FM231300 23014G20KT P6SM VCSH FEW010 SCT015 OVC030
     FM232000 20016G24KT P6SM FEW015 SCT030 BKN040=



000
FTUS46 KOTX 222147 AAB
TAFEAT
TAF AMD
KEAT 222147Z 2222/2318 28004KT P6SM -RA BKN025 OVC040
     FM230200 30005KT 5SM BR BKN015 OVC025
     FM230800 30007KT P6SM VCSH FEW007 BKN015 OVC050
     FM231600 31009KT P6SM SCT015 BKN050=



000
FTUS46 KOTX 222031 AAA
TAFEAT
TAF AMD
KEAT 222031Z 2221/2318 10009KT P6SM -RA OVC040
     FM222300 08004KT 5SM -RA BR BKN025 OVC040
     FM230800 30007KT P6SM VCSH FEW007 BKN015 OVC050
     FM231600 31009KT P6SM SCT015 BKN050=



000
FTUS46 KOTX 222031 AAA
TAFEAT
TAF AMD
KEAT 222031Z 2221/2318 10009KT P6SM -RA OVC040
     FM222300 08004KT 5SM -RA BR BKN025 OVC040
     FM230800 30007KT P6SM VCSH FEW007 BKN015 OVC050
     FM231600 31009KT P6SM SCT015 BKN050=



000
FTUS46 KOTX 221924 AAA
TAFGEG
TAF AMD
KGEG 221924Z 2219/2318 17012KT P6SM SCT060 OVC080
      TEMPO 2219/2222 -SHRA BKN040 OVC080
     FM222200 19012G19KT P6SM -RA SCT040 OVC060
     FM230700 16015G22KT 6SM -RA BR BKN025 OVC040 WS010/23040KT
     FM231300 23018G30KT P6SM VCSH SCT015 OVC030=



000
FTUS46 KOTX 221736
TAFGEG
TAF
KGEG 221736Z 2218/2318 15012KT P6SM SCT060 OVC080
      TEMPO 2218/2222 -SHRA BKN060 OVC080
     FM222200 19012G19KT P6SM -RA SCT040 OVC060
     FM230700 16015G22KT 6SM -RA BR BKN025 OVC040 WS010/23040KT
     FM231300 23018G30KT P6SM VCSH SCT015 OVC030=



000
FTUS46 KOTX 221736
TAFPUW
TAF
KPUW 221736Z 2218/2318 12014KT P6SM VCSH SCT060 BKN080
     FM222000 13015G22KT P6SM BKN050 OVC110
      TEMPO 2222/2302 -SHRA
     FM230200 14010KT P6SM -RA SCT030 BKN050 OVC080
     FM230600 15012KT 6SM -RA BKN030 OVC050 WS020/24035KT
     FM231200 25017G28KT P6SM BKN035 OVC050=



000
FTUS46 KOTX 221736
TAFCOE
TAF
KCOE 221736Z 2218/2318 12005KT P6SM VCSH OVC060
     FM222200 18006KT P6SM -RA SCT030 OVC050
     FM230700 15011KT 6SM -RA BR SCT020 OVC040
     FM231000 18007KT 5SM RA BR OVC015 WS015/24035KT
     FM231500 23015G25KT P6SM VCSH BKN020 OVC035
      AMD LTD TO CLD AND VIS=



000
FTUS46 KOTX 221736
TAFSFF
TAF
KSFF 221736Z 2218/2318 10004KT P6SM VCSH SCT060 OVC080
     FM222200 19010KT P6SM -RA SCT040 OVC080
     FM230700 18007KT 6SM -RA BR SCT020 OVC035 WS015/23040KT
     FM231500 22015KT P6SM SCT030 OVC040=



000
FTUS46 KOTX 221736
TAFEAT
TAF
KEAT 221736Z 2218/2318 10009KT P6SM VCSH OVC040
     FM222000 08004KT 5SM -RA BR BKN025 OVC040
     FM230800 30007KT P6SM VCSH FEW007 BKN015 OVC050
     FM231600 31009KT P6SM SCT015 BKN050=



000
FTUS46 KOTX 221736
TAFMWH
TAF
KMWH 221736Z 2218/2318 15012KT P6SM -SHRA OVC060
     FM222100 19010G18KT P6SM -RA SCT025 OVC050
      TEMPO 2302/2306 5SM RA BR BKN025 OVC040
     FM231000 20010KT P6SM VCSH SCT030 OVC060=



000
FTUS46 KOTX 221736
TAFLWS
TAF
KLWS 221736Z 2218/2318 10009KT P6SM SCT070 OVC120
     FM230000 13006KT P6SM VCSH SCT040 BKN060 OVC080
     FM230600 17009KT P6SM -RA SCT030 OVC050 WS020/24035KT
     FM231500 17012KT P6SM SCT050 OVC090=



000
FTUS46 KOTX 221736
TAFEAT
TAF
KEAT 221736Z 2218/2318 10009KT P6SM VCSH OVC040
     FM222000 08004KT 5SM -RA BR BKN025 OVC040
     FM230800 30007KT P6SM VCSH FEW007 BKN015 OVC050
     FM231600 31009KT P6SM SCT015 BKN050=



000
FTUS46 KOTX 221736
TAFMWH
TAF
KMWH 221736Z 2218/2318 15012KT P6SM -SHRA OVC060
     FM222100 19010G18KT P6SM -RA SCT025 OVC050
      TEMPO 2302/2306 5SM RA BR BKN025 OVC040
     FM231000 20010KT P6SM VCSH SCT030 OVC060=



000
FTUS46 KOTX 221736
TAFGEG
TAF
KGEG 221736Z 2218/2318 15012KT P6SM SCT060 OVC080
      TEMPO 2218/2222 -SHRA BKN060 OVC080
     FM222200 19012G19KT P6SM -RA SCT040 OVC060
     FM230700 16015G22KT 6SM -RA BR BKN025 OVC040 WS010/23040KT
     FM231300 23018G30KT P6SM VCSH SCT015 OVC030=



000
FTUS46 KOTX 221736
TAFLWS
TAF
KLWS 221736Z 2218/2318 10009KT P6SM SCT070 OVC120
     FM230000 13006KT P6SM VCSH SCT040 BKN060 OVC080
     FM230600 17009KT P6SM -RA SCT030 OVC050 WS020/24035KT
     FM231500 17012KT P6SM SCT050 OVC090=



000
FTUS46 KOTX 221736
TAFPUW
TAF
KPUW 221736Z 2218/2318 12014KT P6SM VCSH SCT060 BKN080
     FM222000 13015G22KT P6SM BKN050 OVC110
      TEMPO 2222/2302 -SHRA
     FM230200 14010KT P6SM -RA SCT030 BKN050 OVC080
     FM230600 15012KT 6SM -RA BKN030 OVC050 WS020/24035KT
     FM231200 25017G28KT P6SM BKN035 OVC050=



000
FTUS46 KOTX 221736
TAFCOE
TAF
KCOE 221736Z 2218/2318 12005KT P6SM VCSH OVC060
     FM222200 18006KT P6SM -RA SCT030 OVC050
     FM230700 15011KT 6SM -RA BR SCT020 OVC040
     FM231000 18007KT 5SM RA BR OVC015 WS015/24035KT
     FM231500 23015G25KT P6SM VCSH BKN020 OVC035
      AMD LTD TO CLD AND VIS=



000
FTUS46 KOTX 221736
TAFSFF
TAF
KSFF 221736Z 2218/2318 10004KT P6SM VCSH SCT060 OVC080
     FM222200 19010KT P6SM -RA SCT040 OVC080
     FM230700 18007KT 6SM -RA BR SCT020 OVC035 WS015/23040KT
     FM231500 22015KT P6SM SCT030 OVC040=



000
FTUS46 KOTX 221143 CCA
TAFEAT
TAF COR
KEAT 221143Z 2212/2312 11010KT P6SM VCSH BKN080 OVC100
      TEMPO 2214/2218 -RA SCT040 OVC070
     FM221800 10009KT 6SM -RA BR BKN040 OVC060
     FM230200 08004KT 5SM -RA BR BKN025 OVC040
     FM230800 30007KT P6SM VCSH FEW007 SCT025 OVC050=



000
FTUS46 KOTX 221139
TAFGEG
TAF
KGEG 221139Z 2212/2312 14008KT P6SM FEW060 FEW110 BKN250
     FM221900 17010KT P6SM VCSH SCT050 OVC090
     FM222200 19012G19KT P6SM -RA SCT040 OVC080
     FM230700 16015G22KT 6SM -RA BR SCT020 OVC040=



000
FTUS46 KOTX 221139
TAFEAT
TAF
KEAT 221139Z 2212/2312 11010KT P6SM BKN080 OVC100
     FM221500 13005KT 6SM -RA BR BKN030 OVC050
     FM230200 08004KT 4SM -RA BR BKN025 OVC040=



000
FTUS46 KOTX 221139
TAFLWS
TAF
KLWS 221139Z 2212/2312 13006KT P6SM SCT200
     FM221900 11006KT P6SM SCT070 OVC120
     FM230500 13006KT P6SM VCSH SCT040 BKN060 OVC080
     FM230900 13009KT P6SM -RA SCT030 OVC050=



000
FTUS46 KOTX 221139
TAFPUW
TAF
KPUW 221139Z 2212/2312 09012KT P6SM SCT200
     FM221800 13015G22KT P6SM BKN050 OVC110
     FM230000 14010KT P6SM VCSH BKN040 OVC080
     FM230400 14009KT P6SM -RA SCT030 BKN050 OVC080=



000
FTUS46 KOTX 221139
TAFCOE
TAF
KCOE 221139Z 2212/2312 04004KT P6SM SCT200
     FM222200 18006KT P6SM VCSH SCT050 OVC090
     FM230300 14010KT P6SM SCT040 OVC080
      TEMPO 2303/2307 -RA BKN040
     FM230700 15011KT 6SM -RA BR SCT020 OVC040
      AMD LTD TO CLD AND VIS=



000
FTUS46 KOTX 221139
TAFSFF
TAF
KSFF 221139Z 2212/2312 04004KT P6SM FEW110 BKN200
     FM222000 18006KT P6SM VCSH SCT050 OVC090
     FM222300 19010KT P6SM -RA SCT040 OVC080
     FM230700 18011KT 6SM -RA BR SCT020 OVC040=



000
FTUS46 KOTX 221139
TAFMWH
TAF
KMWH 221139Z 2212/2312 12008KT P6SM VCSH BKN070 OVC090
     FM221600 14010KT P6SM -RA SCT030 BKN040 OVC060
     FM221900 19010G18KT 6SM -RA BR SCT025 OVC050
     FM231000 20010KT P6SM VCSH SCT030 OVC060=



000
FTUS46 KOTX 220527
TAFMWH
TAF
KMWH 220527Z 2206/2306 14008KT P6SM SCT120 BKN150
     FM220900 15012KT P6SM SCT080 BKN100 OVC150
     FM221200 16011KT P6SM VCSH SCT050 BKN080 OVC100
     FM221600 17011KT P6SM -RA SCT030 BKN040 OVC060=



000
FTUS46 KOTX 220527
TAFEAT
TAF
KEAT 220527Z 2206/2306 VRB03KT P6SM VCSH SCT050 BKN070 OVC100
     FM221200 08003KT P6SM -RA SCT030 BKN050 OVC080
     FM221500 13005KT 6SM -RA BR BKN030 OVC050
     FM230200 08004KT 4SM -RA BR BKN025 OVC040=



000
FTUS46 KOTX 220527
TAFCOE
TAF
KCOE 220527Z 2206/2306 15005KT P6SM SCT040 SCT150
     FM221500 11010KT P6SM SCT050 BKN080 OVC100
     FM222200 17008KT P6SM BKN040 OVC060
     FM230500 15010KT P6SM -RA SCT030 BKN040 OVC060
      AMD LTD TO CLD AND VIS=



000
FTUS46 KOTX 220527
TAFPUW
TAF
KPUW 220527Z 2206/2306 09006KT P6SM FEW150
     FM221200 10014KT P6SM SCT100 BKN120 OVC150
     FM221800 14011KT P6SM SCT060 BKN080 OVC100
     FM230400 14009KT P6SM -RA SCT030 BKN050 OVC080=



000
FTUS46 KOTX 220527
TAFLWS
TAF
KLWS 220527Z 2206/2306 12004KT P6SM FEW150
     FM221300 11006KT P6SM SCT100 BKN150
     FM221900 11006KT P6SM BKN080 OVC100
     FM230500 13006KT P6SM VCSH SCT040 BKN060 OVC080=



000
FTUS46 KOTX 220527
TAFSFF
TAF
KSFF 220527Z 2206/2306 VRB03KT P6SM SCT150
     FM221000 13004KT P6SM SCT060 BKN080 OVC100
     FM221600 16005KT P6SM BKN050 OVC080
     FM222000 19008KT P6SM SCT040 BKN060 OVC100
     FM230400 16009KT P6SM -RA SCT030 BKN040 OVC060=



000
FTUS46 KOTX 220527
TAFGEG
TAF
KGEG 220527Z 2206/2306 18009KT P6SM FEW070 SCT150
     FM221000 14008KT P6SM SCT050 BKN070 OVC100
     FM221600 13013KT P6SM BKN050 OVC080
     FM222000 18012KT P6SM SCT040 BKN060 OVC080
     FM230400 16013KT P6SM -RA SCT030 BKN040 OVC060=



000
FTUS46 KOTX 220527
TAFPUW
TAF
KPUW 220527Z 2206/2306 09006KT P6SM FEW150
     FM221200 10014KT P6SM SCT100 BKN120 OVC150
     FM221800 14011KT P6SM SCT060 BKN080 OVC100
     FM230400 14009KT P6SM -RA SCT030 BKN050 OVC080=



000
FTUS46 KOTX 220527
TAFEAT
TAF
KEAT 220527Z 2206/2306 VRB03KT P6SM VCSH SCT050 BKN070 OVC100
     FM221200 08003KT P6SM -RA SCT030 BKN050 OVC080
     FM221500 13005KT 6SM -RA BR BKN030 OVC050
     FM230200 08004KT 4SM -RA BR BKN025 OVC040=



000
FTUS46 KOTX 220527
TAFCOE
TAF
KCOE 220527Z 2206/2306 15005KT P6SM SCT040 SCT150
     FM221500 11010KT P6SM SCT050 BKN080 OVC100
     FM222200 17008KT P6SM BKN040 OVC060
     FM230500 15010KT P6SM -RA SCT030 BKN040 OVC060
      AMD LTD TO CLD AND VIS=



000
FTUS46 KOTX 220527
TAFLWS
TAF
KLWS 220527Z 2206/2306 12004KT P6SM FEW150
     FM221300 11006KT P6SM SCT100 BKN150
     FM221900 11006KT P6SM BKN080 OVC100
     FM230500 13006KT P6SM VCSH SCT040 BKN060 OVC080=



000
FTUS46 KOTX 220527
TAFSFF
TAF
KSFF 220527Z 2206/2306 VRB03KT P6SM SCT150
     FM221000 13004KT P6SM SCT060 BKN080 OVC100
     FM221600 16005KT P6SM BKN050 OVC080
     FM222000 19008KT P6SM SCT040 BKN060 OVC100
     FM230400 16009KT P6SM -RA SCT030 BKN040 OVC060=



000
FTUS46 KOTX 220527
TAFGEG
TAF
KGEG 220527Z 2206/2306 18009KT P6SM FEW070 SCT150
     FM221000 14008KT P6SM SCT050 BKN070 OVC100
     FM221600 13013KT P6SM BKN050 OVC080
     FM222000 18012KT P6SM SCT040 BKN060 OVC080
     FM230400 16013KT P6SM -RA SCT030 BKN040 OVC060=



000
FTUS46 KOTX 220527
TAFMWH
TAF
KMWH 220527Z 2206/2306 14008KT P6SM SCT120 BKN150
     FM220900 15012KT P6SM SCT080 BKN100 OVC150
     FM221200 16011KT P6SM VCSH SCT050 BKN080 OVC100
     FM221600 17011KT P6SM -RA SCT030 BKN040 OVC060=



000
FTUS46 KOTX 212330
TAFGEG
TAF
KGEG 212330Z 2200/2224 22013KT P6SM SCT035 SCT050 BKN100
     FM220400 18009KT P6SM FEW050 SCT150
     FM220900 16008KT P6SM SCT070 BKN100 OVC120
     FM221500 14013KT P6SM BKN080 OVC100
     FM222000 18012KT P6SM VCSH SCT040 BKN060 OVC080=



000
FTUS46 KOTX 212330
TAFCOE
TAF
KCOE 212330Z 2200/2224 22011KT P6SM SCT040 BKN070
     FM220200 19006KT P6SM SCT040 SCT080
     FM220600 15005KT P6SM FEW050 SCT150
     FM221100 10008KT P6SM SCT080 BKN100
     FM221500 11012KT P6SM SCT050 BKN080 OVC100
     FM222200 17008KT P6SM VCSH BKN040 OVC060
      AMD LTD TO CLD AND VIS=



000
FTUS46 KOTX 212330
TAFMWH
TAF
KMWH 212330Z 2200/2224 21012KT P6SM FEW080
     FM220100 18006KT P6SM SCT100
     FM220700 15008KT P6SM SCT120 BKN150 OVC200
     FM220900 15012KT P6SM SCT080 BKN100 OVC150
     FM221600 16011KT P6SM VCSH BKN080 OVC100
     FM221800 17011KT P6SM -RA SCT030 BKN040 OVC060=



000
FTUS46 KOTX 212330
TAFSFF
TAF
KSFF 212330Z 2200/2224 22009KT P6SM SCT040 BKN080
     FM220600 VRB03KT P6SM SCT150
     FM220900 13004KT P6SM SCT100 OVC150
     FM221600 18008KT P6SM BKN080 OVC100
     FM222000 19008KT P6SM VCSH SCT040 BKN060 OVC100=



000
FTUS46 KOTX 212330
TAFPUW
TAF
KPUW 212330Z 2200/2224 25013G21KT P6SM SCT080
     FM220200 16005KT P6SM FEW080
     FM220800 11009KT P6SM FEW120 SCT150
     FM221300 12014KT P6SM SCT100 BKN120 OVC150
     FM221800 14011KT P6SM SCT060 BKN100 OVC120=



000
FTUS46 KOTX 212330
TAFLWS
TAF
KLWS 212330Z 2200/2224 12004KT P6SM FEW060 SCT100
     FM220700 11003KT P6SM FEW100 SCT150
     FM221300 11006KT P6SM SCT100 BKN150
     FM221900 11006KT P6SM BKN080 OVC100=



000
FTUS46 KOTX 212330
TAFEAT
TAF
KEAT 212330Z 2200/2224 VRB04KT P6SM FEW070 SCT120
     FM220500 VRB03KT P6SM VCSH SCT050 BKN070 OVC100
     FM221300 08003KT P6SM -RA SCT030 BKN050 OVC080
     FM221500 10003KT 6SM -RA BR BKN030 OVC050=



000
FTUS46 KOTX 212209 AAA
TAFGEG
TAF AMD
KGEG 212209Z 2122/2218 22013G19KT P6SM SCT035 BKN050
     FM220400 15007KT P6SM FEW040 SCT200
     FM220900 14009KT P6SM SCT100 BKN130 OVC200
     FM221400 14013KT P6SM BKN080 OVC100=



000
FTUS46 KOTX 212209 AAA
TAFGEG
TAF AMD
KGEG 212209Z 2122/2218 22013G19KT P6SM SCT035 BKN050
     FM220400 15007KT P6SM FEW040 SCT200
     FM220900 14009KT P6SM SCT100 BKN130 OVC200
     FM221400 14013KT P6SM BKN080 OVC100=



000
FTUS46 KOTX 212029 AAA
TAFCOE
TAF AMD
KCOE 212029Z 2120/2218 25011KT P6SM BKN035 BKN050
     FM220200 19007KT P6SM SCT030 BKN050
     FM220600 14005KT P6SM FEW050 SCT200
     FM221000 10008KT P6SM SCT100 BKN130 OVC200
     FM221500 11012KT P6SM BKN080 OVC100
      AMD LTD TO CLD AND VIS=



000
FTUS46 KOTX 212028 AAA
TAFSFF
TAF AMD
KSFF 212028Z 2120/2218 22009KT P6SM BKN035
     FM220600 16003KT P6SM SCT150 BKN200
     FM220900 16004KT P6SM SCT100 BKN130 OVC200
     FM221400 17007KT P6SM BKN080 OVC100=



000
FTUS46 KOTX 211752 CCA
TAFGEG
TAF COR
KGEG 211752Z 2118/2218 23012G16KT P6SM OVC010
     FM212100 22014G20KT P6SM BKN030
     FM212300 22013G19KT P6SM BKN035
     FM220400 15007KT P6SM FEW040 SCT200
     FM220900 14009KT P6SM SCT100 BKN130 OVC200
     FM221400 14013KT P6SM BKN080 OVC100=



000
FTUS46 KOTX 211750 CCA
TAFEAT
TAF COR
KEAT 211750Z 2118/2218 00000KT P6SM SCT006
     FM211900 27008KT P6SM FEW025 SCT040
     FM220200 VRB03KT P6SM OVC200
     FM220500 07004KT P6SM SCT100 OVC150
     FM221300 08003KT P6SM -RA BKN050 OVC080
     FM221500 10003KT 6SM -RA BR BKN030 OVC050=



000
FTUS46 KOTX 211742 CCA
TAFMWH
TAF COR
KMWH 211742Z 2118/2218 17005KT P6SM FEW002
     FM211900 21008KT P6SM FEW050
     FM220100 17006KT P6SM SCT200
     FM220700 15007KT P6SM FEW120 SCT150 OVC200
     FM221000 15009KT P6SM BKN100 OVC150
     FM221600 16011KT P6SM VCSH BKN080 OVC100=



000
FTUS46 KOTX 211739
TAFEAT
TAF
KEAT 211739Z 2118/2218 27003KT P6SM OVC006
     FM212000 27009KT P6SM SCT030 BKN200
     FM220400 16006KT P6SM VCSH SCT030 OVC070
     FM221200 VRB03KT 6SM -RA BR BKN025 OVC050=



000
FTUS46 KOTX 211739
TAFGEG
TAF
KGEG 211739Z 2118/2218 21012G16KT P6SM BKN010
     FM212100 22014G20KT P6SM BKN030
     FM212300 22013G19KT P6SM BKN035
     FM220400 15007KT P6SM FEW040 SCT200
     FM220900 14009KT P6SM SCT100 BKN130 OVC200
     FM221400 14013KT P6SM BKN080 OVC100=



000
FTUS46 KOTX 211739
TAFMWH
TAF
KMWH 211739Z 2118/2218 17005KT P6SM FEW002
     FM211900 21008KT P6SM FEW050
     FM220100 17006KT P6SM SCT200
     FM220700 15007KT P6SM FEW120 SCT150 OVC200
     FM221000 15011KT P6SM BKN080 OVC120=



000
FTUS46 KOTX 211739
TAFLWS
TAF
KLWS 211739Z 2118/2218 30003KT P6SM SCT040
     FM212100 28007KT P6SM FEW050
     FM220200 15004KT P6SM SKC
     FM220700 11003KT P6SM FEW150 SCT200
     FM221300 11006KT P6SM SCT100 BKN130 OVC180=



000
FTUS46 KOTX 211739
TAFSFF
TAF
KSFF 211739Z 2118/2218 22009KT P6SM OVC015
     FM212000 22010G16KT P6SM OVC025
     FM212200 22010G16KT P6SM BKN035
     FM220600 16003KT P6SM SCT150 BKN200
     FM220900 16004KT P6SM SCT100 BKN130 OVC200
     FM221400 17007KT P6SM BKN080 OVC100=



000
FTUS46 KOTX 211739
TAFPUW
TAF
KPUW 211739Z 2118/2218 25013G21KT P6SM BKN030
     FM212030 25013G21KT P6SM SCT035 BKN050
     FM220300 13005KT P6SM FEW050
     FM220800 11009KT P6SM FEW150 SCT200
     FM221300 12013KT P6SM SCT100 BKN130 OVC180=



000
FTUS46 KOTX 211739
TAFCOE
TAF
KCOE 211739Z 2118/2218 24010KT P6SM VCSH BKN030 BKN050
      TEMPO 2118/2120 SCT025 BKN040
     FM212200 24011KT P6SM VCSH BKN035 BKN050
     FM220200 19007KT P6SM SCT030 BKN050
     FM220600 14005KT P6SM FEW050 SCT200
     FM221000 10008KT P6SM SCT100 BKN130 OVC200
     FM221500 11012KT P6SM BKN080 OVC100
      AMD LTD TO CLD AND VIS=



000
FTUS46 KOTX 211612 AAB
TAFMWH
TAF AMD
KMWH 211612Z 2116/2212 00000KT 1SM PRFG BKN002
      TEMPO 2116/2117 1/4SM FG VV002
     FM211700 20003KT 6SM BR SCT002
     FM211800 21008KT P6SM SCT100
     FM220900 14009KT P6SM VCSH BKN050 OVC080=



000
FTUS46 KOTX 211612 AAB
TAFMWH
TAF AMD
KMWH 211612Z 2116/2212 00000KT 1SM PRFG BKN002
      TEMPO 2116/2117 1/4SM FG VV002
     FM211700 20003KT 6SM BR SCT002
     FM211800 21008KT P6SM SCT100
     FM220900 14009KT P6SM VCSH BKN050 OVC080=



000
FTUS46 KOTX 211612 AAB
TAFMWH
TAF AMD
KMWH 211612Z 2116/2212 00000KT 1SM PRFG BKN002
      TEMPO 2116/2117 1/4SM FG VV002
     FM211700 20003KT 6SM BR SCT002
     FM211800 21008KT P6SM SCT100
     FM220900 14009KT P6SM VCSH BKN050 OVC080=



000
FTUS46 KOTX 211612 AAB
TAFMWH
TAF AMD
KMWH 211612Z 2116/2212 00000KT 1SM PRFG BKN002
      TEMPO 2116/2117 1/4SM FG VV002
     FM211700 20003KT 6SM BR SCT002
     FM211800 21008KT P6SM SCT100
     FM220900 14009KT P6SM VCSH BKN050 OVC080=



000
FTUS46 KOTX 211537 AAC
TAFEAT
TAF AMD
KEAT 211537Z 2116/2212 00000KT 6SM BCFG SCT003 BKN100
      TEMPO 2116/2117 4SM BR BKN003
     FM211700 27003KT P6SM SCT200
     FM211900 27009KT P6SM SCT040 BKN200
     FM220400 16006KT P6SM VCSH SCT030 OVC070
     FM220700 VRB03KT 6SM -RA BR BKN025 OVC050=



000
FTUS46 KOTX 211537 AAC
TAFEAT
TAF AMD
KEAT 211537Z 2116/2212 00000KT 6SM BCFG SCT003 BKN100
      TEMPO 2116/2117 4SM BR BKN003
     FM211700 27003KT P6SM SCT200
     FM211900 27009KT P6SM SCT040 BKN200
     FM220400 16006KT P6SM VCSH SCT030 OVC070
     FM220700 VRB03KT 6SM -RA BR BKN025 OVC050=



000
FTUS46 KOTX 211537 AAC
TAFEAT
TAF AMD
KEAT 211537Z 2116/2212 00000KT 6SM BCFG SCT003 BKN100
      TEMPO 2116/2117 4SM BR BKN003
     FM211700 27003KT P6SM SCT200
     FM211900 27009KT P6SM SCT040 BKN200
     FM220400 16006KT P6SM VCSH SCT030 OVC070
     FM220700 VRB03KT 6SM -RA BR BKN025 OVC050=



000
FTUS46 KOTX 211537 AAC
TAFEAT
TAF AMD
KEAT 211537Z 2116/2212 00000KT 6SM BCFG SCT003 BKN100
      TEMPO 2116/2117 4SM BR BKN003
     FM211700 27003KT P6SM SCT200
     FM211900 27009KT P6SM SCT040 BKN200
     FM220400 16006KT P6SM VCSH SCT030 OVC070
     FM220700 VRB03KT 6SM -RA BR BKN025 OVC050=



000
FTUS46 KOTX 211522 AAA
TAFMWH
TAF AMD
KMWH 211522Z 2115/2212 00000KT 6SM BR FEW001
     FM211600 19004KT P6SM FEW100
     FM211800 21008KT P6SM SCT100
     FM220900 14009KT P6SM VCSH BKN050 OVC080=



000
FTUS46 KOTX 211522 AAA
TAFMWH
TAF AMD
KMWH 211522Z 2115/2212 00000KT 6SM BR FEW001
     FM211600 19004KT P6SM FEW100
     FM211800 21008KT P6SM SCT100
     FM220900 14009KT P6SM VCSH BKN050 OVC080=



000
FTUS46 KOTX 211522 AAA
TAFMWH
TAF AMD
KMWH 211522Z 2115/2212 00000KT 6SM BR FEW001
     FM211600 19004KT P6SM FEW100
     FM211800 21008KT P6SM SCT100
     FM220900 14009KT P6SM VCSH BKN050 OVC080=



000
FTUS46 KOTX 211522 AAA
TAFMWH
TAF AMD
KMWH 211522Z 2115/2212 00000KT 6SM BR FEW001
     FM211600 19004KT P6SM FEW100
     FM211800 21008KT P6SM SCT100
     FM220900 14009KT P6SM VCSH BKN050 OVC080=



000
FTUS46 KOTX 211510 AAA
TAFCOE
TAF AMD
KCOE 211510Z 2115/2212 23007KT P6SM VCSH BKN025 OVC050
     FM212030 22011KT P6SM VCSH BKN040
     FM220200 19008KT P6SM SCT050 SCT120 SCT200
     FM220900 15005KT P6SM BKN050 OVC120
      AMD LTD TO CLD AND VIS=



000
FTUS46 KOTX 211510 AAA
TAFCOE
TAF AMD
KCOE 211510Z 2115/2212 23007KT P6SM VCSH BKN025 OVC050
     FM212030 22011KT P6SM VCSH BKN040
     FM220200 19008KT P6SM SCT050 SCT120 SCT200
     FM220900 15005KT P6SM BKN050 OVC120
      AMD LTD TO CLD AND VIS=



000
FTUS46 KOTX 211507 AAA
TAFSFF
TAF AMD
KSFF 211507Z 2115/2212 22008KT P6SM OVC015
     FM211800 22009KT P6SM BKN025
     FM212030 22010G16KT P6SM BKN040
     FM220200 VRB03KT P6SM SCT040 BKN200
     FM220900 16004KT P6SM FEW060 BKN130 OVC220=



000
FTUS46 KOTX 211507 AAA
TAFSFF
TAF AMD
KSFF 211507Z 2115/2212 22008KT P6SM OVC015
     FM211800 22009KT P6SM BKN025
     FM212030 22010G16KT P6SM BKN040
     FM220200 VRB03KT P6SM SCT040 BKN200
     FM220900 16004KT P6SM FEW060 BKN130 OVC220=



000
FTUS46 KOTX 211503 AAA
TAFGEG
TAF AMD
KGEG 211503Z 2115/2212 21009KT P6SM BKN008
     FM211600 21010KT P6SM BKN015
     FM211800 21012G16KT P6SM BKN025 BKN040
     FM212100 22014G20KT P6SM BKN040
     FM220200 18007KT P6SM SCT040 BKN200
     FM220900 15007KT P6SM FEW060 BKN130 OVC200=



000
FTUS46 KOTX 211441 AAB
TAFEAT
TAF AMD
KEAT 211441Z 2115/2212 00000KT 6SM BCFG SCT004 BKN100
     FM211700 27003KT P6SM SCT200
     FM211900 27009KT P6SM SCT040 BKN200
     FM220400 16006KT P6SM VCSH SCT030 OVC070
     FM220700 VRB03KT 6SM -RA BR BKN025 OVC050=



000
FTUS46 KOTX 211441 AAB
TAFEAT
TAF AMD
KEAT 211441Z 2115/2212 00000KT 6SM BCFG SCT004 BKN100
     FM211700 27003KT P6SM SCT200
     FM211900 27009KT P6SM SCT040 BKN200
     FM220400 16006KT P6SM VCSH SCT030 OVC070
     FM220700 VRB03KT 6SM -RA BR BKN025 OVC050=



000
FTUS46 KOTX 211327 AAA
TAFEAT
TAF AMD
KEAT 211327Z 2113/2212 00000KT 6SM BCFG SCT004 OVC012
      TEMPO 2113/2116 3SM BR BKN004 OVC009
     FM211900 27009KT P6SM SCT040 BKN200
     FM220400 16006KT P6SM VCSH SCT030 OVC070
     FM220700 VRB03KT 6SM -RA BR BKN025 OVC050=



000
FTUS46 KOTX 211327 AAA
TAFEAT
TAF AMD
KEAT 211327Z 2113/2212 00000KT 6SM BCFG SCT004 OVC012
      TEMPO 2113/2116 3SM BR BKN004 OVC009
     FM211900 27009KT P6SM SCT040 BKN200
     FM220400 16006KT P6SM VCSH SCT030 OVC070
     FM220700 VRB03KT 6SM -RA BR BKN025 OVC050=



000
FTUS46 KOTX 211139
TAFSFF
TAF
KSFF 211139Z 2112/2212 19006KT P6SM FEW013 OVC027
     FM211800 20009KT P6SM SCT025 BKN080
     FM220200 VRB03KT P6SM SCT040 BKN200
     FM220900 16004KT P6SM FEW060 BKN130 OVC220=



000
FTUS46 KOTX 211139
TAFSFF
TAF
KSFF 211139Z 2112/2212 19006KT P6SM FEW013 OVC027
     FM211800 20009KT P6SM SCT025 BKN080
     FM220200 VRB03KT P6SM SCT040 BKN200
     FM220900 16004KT P6SM FEW060 BKN130 OVC220=



000
FTUS46 KOTX 211139
TAFCOE
TAF
KCOE 211139Z 2112/2212 24005KT P6SM VCSH SCT025 OVC060
     FM211800 22009KT P6SM VCSH BKN018 OVC025
     FM220200 19008KT P6SM SCT050 SCT120 SCT200
     FM220900 15005KT P6SM BKN050 OVC120
      AMD LTD TO CLD AND VIS=



000
FTUS46 KOTX 211139
TAFGEG
TAF
KGEG 211139Z 2112/2212 18008KT P6SM FEW009 BKN020 OVC060
      TEMPO 2112/2116 SCT009 OVC015
     FM211700 20012G16KT P6SM BKN025 OVC040
     FM220200 18007KT P6SM SCT040 BKN200
     FM220900 15007KT P6SM FEW060 BKN130 OVC200=



000
FTUS46 KOTX 211139
TAFEAT
TAF
KEAT 211139Z 2112/2212 00000KT 6SM BCFG SCT009 OVC012
     FM211900 27009KT P6SM SCT040 BKN200
     FM220400 16006KT P6SM VCSH SCT030 OVC070
     FM220700 VRB03KT 6SM -RA BR BKN025 OVC050=



000
FTUS46 KOTX 211139
TAFMWH
TAF
KMWH 211139Z 2112/2212 15007KT 4SM BR SCT001
      TEMPO 2112/2116 1SM BR BKN001
     FM211800 21008KT P6SM SCT040 BKN120
     FM220900 14009KT P6SM VCSH BKN050 OVC080=



000
FTUS46 KOTX 211139
TAFSFF
TAF
KSFF 211139Z 2112/2212 19006KT P6SM FEW013 OVC027
     FM211800 20009KT P6SM SCT025 BKN080
     FM220200 VRB03KT P6SM SCT040 BKN200
     FM220900 16004KT P6SM FEW060 BKN130 OVC220=



000
FTUS46 KOTX 211139
TAFEAT
TAF
KEAT 211139Z 2112/2212 00000KT 6SM BCFG SCT009 OVC012
     FM211900 27009KT P6SM SCT040 BKN200
     FM220400 16006KT P6SM VCSH SCT030 OVC070
     FM220700 VRB03KT 6SM -RA BR BKN025 OVC050=



000
FTUS46 KOTX 211139
TAFPUW
TAF
KPUW 211139Z 2112/2212 15004KT P6SM SCT025 OVC035
     FM211900 24013G21KT P6SM VCSH SCT030 OVC050
     FM220300 18005KT P6SM SCT120 SCT200
     FM220800 13008KT P6SM BKN070 OVC180=



000
FTUS46 KOTX 211139
TAFPUW
TAF
KPUW 211139Z 2112/2212 15004KT P6SM SCT025 OVC035
     FM211900 24013G21KT P6SM VCSH SCT030 OVC050
     FM220300 18005KT P6SM SCT120 SCT200
     FM220800 13008KT P6SM BKN070 OVC180=



000
FTUS46 KOTX 211139
TAFLWS
TAF
KLWS 211139Z 2112/2212 06004KT P6SM VCSH SCT035 OVC060
     FM211700 27008KT P6SM SCT040 OVC070
     FM220700 13008KT P6SM BKN080 OVC150=



000
FTUS46 KOTX 211139
TAFLWS
TAF
KLWS 211139Z 2112/2212 06004KT P6SM VCSH SCT035 OVC060
     FM211700 27008KT P6SM SCT040 OVC070
     FM220700 13008KT P6SM BKN080 OVC150=



000
FTUS46 KOTX 211139
TAFGEG
TAF
KGEG 211139Z 2112/2212 18008KT P6SM FEW009 BKN020 OVC060
      TEMPO 2112/2116 SCT009 OVC015
     FM211700 20012G16KT P6SM BKN025 OVC040
     FM220200 18007KT P6SM SCT040 BKN200
     FM220900 15007KT P6SM FEW060 BKN130 OVC200=



000
FTUS46 KOTX 211139
TAFLWS
TAF
KLWS 211139Z 2112/2212 06004KT P6SM VCSH SCT035 OVC060
     FM211700 27008KT P6SM SCT040 OVC070
     FM220700 13008KT P6SM BKN080 OVC150=



000
FTUS46 KOTX 211139
TAFPUW
TAF
KPUW 211139Z 2112/2212 15004KT P6SM SCT025 OVC035
     FM211900 24013G21KT P6SM VCSH SCT030 OVC050
     FM220300 18005KT P6SM SCT120 SCT200
     FM220800 13008KT P6SM BKN070 OVC180=



000
FTUS46 KOTX 211139
TAFCOE
TAF
KCOE 211139Z 2112/2212 24005KT P6SM VCSH SCT025 OVC060
     FM211800 22009KT P6SM VCSH BKN018 OVC025
     FM220200 19008KT P6SM SCT050 SCT120 SCT200
     FM220900 15005KT P6SM BKN050 OVC120
      AMD LTD TO CLD AND VIS=



000
FTUS46 KOTX 211139
TAFCOE
TAF
KCOE 211139Z 2112/2212 24005KT P6SM VCSH SCT025 OVC060
     FM211800 22009KT P6SM VCSH BKN018 OVC025
     FM220200 19008KT P6SM SCT050 SCT120 SCT200
     FM220900 15005KT P6SM BKN050 OVC120
      AMD LTD TO CLD AND VIS=



000
FTUS46 KOTX 211139
TAFMWH
TAF
KMWH 211139Z 2112/2212 15007KT 4SM BR SCT001
      TEMPO 2112/2116 1SM BR BKN001
     FM211800 21008KT P6SM SCT040 BKN120
     FM220900 14009KT P6SM VCSH BKN050 OVC080=



000
FTUS46 KOTX 211139
TAFMWH
TAF
KMWH 211139Z 2112/2212 15007KT 4SM BR SCT001
      TEMPO 2112/2116 1SM BR BKN001
     FM211800 21008KT P6SM SCT040 BKN120
     FM220900 14009KT P6SM VCSH BKN050 OVC080=



000
FTUS46 KOTX 211139
TAFGEG
TAF
KGEG 211139Z 2112/2212 18008KT P6SM FEW009 BKN020 OVC060
      TEMPO 2112/2116 SCT009 OVC015
     FM211700 20012G16KT P6SM BKN025 OVC040
     FM220200 18007KT P6SM SCT040 BKN200
     FM220900 15007KT P6SM FEW060 BKN130 OVC200=



000
FTUS46 KOTX 211139
TAFSFF
TAF
KSFF 211139Z 2112/2212 19006KT P6SM FEW013 OVC027
     FM211800 20009KT P6SM SCT025 BKN080
     FM220200 VRB03KT P6SM SCT040 BKN200
     FM220900 16004KT P6SM FEW060 BKN130 OVC220=



000
FTUS46 KOTX 211139
TAFLWS
TAF
KLWS 211139Z 2112/2212 06004KT P6SM VCSH SCT035 OVC060
     FM211700 27008KT P6SM SCT040 OVC070
     FM220700 13008KT P6SM BKN080 OVC150=



000
FTUS46 KOTX 211139
TAFGEG
TAF
KGEG 211139Z 2112/2212 18008KT P6SM FEW009 BKN020 OVC060
      TEMPO 2112/2116 SCT009 OVC015
     FM211700 20012G16KT P6SM BKN025 OVC040
     FM220200 18007KT P6SM SCT040 BKN200
     FM220900 15007KT P6SM FEW060 BKN130 OVC200=



000
FTUS46 KOTX 211139
TAFMWH
TAF
KMWH 211139Z 2112/2212 15007KT 4SM BR SCT001
      TEMPO 2112/2116 1SM BR BKN001
     FM211800 21008KT P6SM SCT040 BKN120
     FM220900 14009KT P6SM VCSH BKN050 OVC080=



000
FTUS46 KOTX 211139
TAFCOE
TAF
KCOE 211139Z 2112/2212 24005KT P6SM VCSH SCT025 OVC060
     FM211800 22009KT P6SM VCSH BKN018 OVC025
     FM220200 19008KT P6SM SCT050 SCT120 SCT200
     FM220900 15005KT P6SM BKN050 OVC120
      AMD LTD TO CLD AND VIS=



000
FTUS46 KOTX 211139
TAFEAT
TAF
KEAT 211139Z 2112/2212 00000KT 6SM BCFG SCT009 OVC012
     FM211900 27009KT P6SM SCT040 BKN200
     FM220400 16006KT P6SM VCSH SCT030 OVC070
     FM220700 VRB03KT 6SM -RA BR BKN025 OVC050=



000
FTUS46 KOTX 211139
TAFPUW
TAF
KPUW 211139Z 2112/2212 15004KT P6SM SCT025 OVC035
     FM211900 24013G21KT P6SM VCSH SCT030 OVC050
     FM220300 18005KT P6SM SCT120 SCT200
     FM220800 13008KT P6SM BKN070 OVC180=



000
FTUS46 KOTX 211139
TAFEAT
TAF
KEAT 211139Z 2112/2212 00000KT 6SM BCFG SCT009 OVC012
     FM211900 27009KT P6SM SCT040 BKN200
     FM220400 16006KT P6SM VCSH SCT030 OVC070
     FM220700 VRB03KT 6SM -RA BR BKN025 OVC050=



000
FTUS46 KOTX 210922 AAA
TAFSFF
TAF AMD
KSFF 210922Z 2109/2206 22008KT P6SM VCSH BKN018 BKN050 OVC060
     FM211500 21012G16KT P6SM SCT015 BKN030 BKN040
     FM220400 18008KT P6SM SCT050 SCT120 SCT200=



000
FTUS46 KOTX 210922 AAA
TAFSFF
TAF AMD
KSFF 210922Z 2109/2206 22008KT P6SM VCSH BKN018 BKN050 OVC060
     FM211500 21012G16KT P6SM SCT015 BKN030 BKN040
     FM220400 18008KT P6SM SCT050 SCT120 SCT200=



000
FTUS46 KOTX 210920 AAA
TAFGEG
TAF AMD
KGEG 210920Z 2109/2206 20010KT P6SM VCSH SCT015 BKN070 OVC100
      TEMPO 2110/2114 -RA SCT009 OVC015
     FM211500 20012G16KT P6SM BKN025 OVC040
     FM220400 18009KT P6SM SCT040 SCT120 SCT200=



000
FTUS46 KOTX 210920 AAA
TAFGEG
TAF AMD
KGEG 210920Z 2109/2206 20010KT P6SM VCSH SCT015 BKN070 OVC100
      TEMPO 2110/2114 -RA SCT009 OVC015
     FM211500 20012G16KT P6SM BKN025 OVC040
     FM220400 18009KT P6SM SCT040 SCT120 SCT200=



000
FTUS46 KOTX 210520
TAFSFF
TAF
KSFF 210520Z 2106/2206 20012KT P6SM -RA SCT025 BKN040 OVC060
     FM210900 20012KT 6SM +RA BKN020 OVC040
     FM211100 20012KT P6SM -RA SCT025 BKN040 OVC060
     FM211400 21012G16KT P6SM BKN030 BKN040
     FM220400 18008KT P6SM SCT050 SCT120 SCT200=



000
FTUS46 KOTX 210520
TAFCOE
TAF
KCOE 210520Z 2106/2206 24012KT P6SM SCT070 BKN090 OVC120
     FM210700 22012KT P6SM -RA SCT020 OVC040
     FM211000 23012KT 6SM +RA BR BKN020 OVC025
     FM211500 23012G18KT P6SM VCSH BKN018 OVC025
     FM220500 19008KT P6SM SCT050 SCT120 SCT200
      AMD LTD TO CLD AND VIS=



000
FTUS46 KOTX 210520
TAFGEG
TAF
KGEG 210520Z 2106/2206 21012KT P6SM -RA SCT020 BKN040 OVC060
     FM210900 21012KT 6SM +RA BKN020 OVC040
     FM211100 21012KT P6SM -RA SCT020 BKN040 OVC060
     FM211400 20012G16KT P6SM BKN025 OVC040
     FM220400 18009KT P6SM SCT040 SCT120 SCT200=



000
FTUS46 KOTX 210520
TAFEAT
TAF
KEAT 210520Z 2106/2206 31004KT P6SM SCT080
     FM211800 23006KT P6SM SCT250
     FM212100 27008KT P6SM SCT120 SCT250
     FM220400 16006KT P6SM VCSH SCT060 SCT120 SCT250=



000
FTUS46 KOTX 210520
TAFMWH
TAF
KMWH 210520Z 2106/2206 20010KT P6SM SCT120 BKN200
     FM211100 20010KT P6SM FEW025 SCT200
     FM212100 22012G20KT P6SM SCT120 SCT200=



000
FTUS46 KOTX 210520
TAFCOE
TAF
KCOE 210520Z 2106/2206 24012KT P6SM SCT070 BKN090 OVC120
     FM210700 22012KT P6SM -RA SCT020 OVC040
     FM211000 23012KT 6SM +RA BR BKN020 OVC025
     FM211500 23012G18KT P6SM VCSH BKN018 OVC025
     FM220500 19008KT P6SM SCT050 SCT120 SCT200
      AMD LTD TO CLD AND VIS=



000
FTUS46 KOTX 210520
TAFMWH
TAF
KMWH 210520Z 2106/2206 20010KT P6SM SCT120 BKN200
     FM211100 20010KT P6SM FEW025 SCT200
     FM212100 22012G20KT P6SM SCT120 SCT200=



000
FTUS46 KOTX 210520
TAFSFF
TAF
KSFF 210520Z 2106/2206 20012KT P6SM -RA SCT025 BKN040 OVC060
     FM210900 20012KT 6SM +RA BKN020 OVC040
     FM211100 20012KT P6SM -RA SCT025 BKN040 OVC060
     FM211400 21012G16KT P6SM BKN030 BKN040
     FM220400 18008KT P6SM SCT050 SCT120 SCT200=



000
FTUS46 KOTX 210520
TAFEAT
TAF
KEAT 210520Z 2106/2206 31004KT P6SM SCT080
     FM211800 23006KT P6SM SCT250
     FM212100 27008KT P6SM SCT120 SCT250
     FM220400 16006KT P6SM VCSH SCT060 SCT120 SCT250=



000
FTUS46 KOTX 210520
TAFGEG
TAF
KGEG 210520Z 2106/2206 21012KT P6SM -RA SCT020 BKN040 OVC060
     FM210900 21012KT 6SM +RA BKN020 OVC040
     FM211100 21012KT P6SM -RA SCT020 BKN040 OVC060
     FM211400 20012G16KT P6SM BKN025 OVC040
     FM220400 18009KT P6SM SCT040 SCT120 SCT200=



000
FTUS46 KOTX 210520
TAFLWS
TAF
KLWS 210520Z 2106/2206 30015G22KT 6SM BLDU SCT090 SCT150 BKN200
     FM210800 24015G22KT P6SM -RA BKN040 OVC070
     FM211000 24015G22KT 6SM +RA SCT020 OVC040
     FM211200 24015G22KT P6SM -RA BKN040 OVC070
     FM211700 27004KT P6SM SCT040 OVC070
     FM220500 15005KT P6SM SCT070 SCT120 SCT200=



000
FTUS46 KOTX 210520
TAFPUW
TAF
KPUW 210520Z 2106/2206 26015G22KT P6SM SCT070 BKN100 OVC120
     FM210700 25015G22KT P6SM -RA SCT040 OVC060
     FM210900 25015G22KT 6SM +RA BKN020 OVC025
     FM211100 25015KT 5SM -RA BR SCT012 OVC020
     FM211600 24012KT 6SM BR OVC025
     FM220500 12005KT P6SM SCT120 SCT200=



000
FTUS46 KOTX 210520
TAFPUW
TAF
KPUW 210520Z 2106/2206 26015G22KT P6SM SCT070 BKN100 OVC120
     FM210700 25015G22KT P6SM -RA SCT040 OVC060
     FM210900 25015G22KT 6SM +RA BKN020 OVC025
     FM211100 25015KT 5SM -RA BR SCT012 OVC020
     FM211600 24012KT 6SM BR OVC025
     FM220500 12005KT P6SM SCT120 SCT200=



000
FTUS46 KOTX 210520
TAFLWS
TAF
KLWS 210520Z 2106/2206 30015G22KT 6SM BLDU SCT090 SCT150 BKN200
     FM210800 24015G22KT P6SM -RA BKN040 OVC070
     FM211000 24015G22KT 6SM +RA SCT020 OVC040
     FM211200 24015G22KT P6SM -RA BKN040 OVC070
     FM211700 27004KT P6SM SCT040 OVC070
     FM220500 15005KT P6SM SCT070 SCT120 SCT200=



000
FTUS46 KOTX 210441 AAB
TAFLWS
TAF AMD
KLWS 210441Z 2105/2124 30015G25KT 5SM BLDU SCT090 SCT150 BKN200
     FM210800 24004KT P6SM -RA BKN040 OVC070
     FM211000 24004KT 6SM +RA SCT020 OVC040
     FM211200 24004KT P6SM -RA BKN040 OVC070
     FM211700 27004KT P6SM SCT040 OVC070=



000
FTUS46 KOTX 210441 AAB
TAFLWS
TAF AMD
KLWS 210441Z 2105/2124 30015G25KT 5SM BLDU SCT090 SCT150 BKN200
     FM210800 24004KT P6SM -RA BKN040 OVC070
     FM211000 24004KT 6SM +RA SCT020 OVC040
     FM211200 24004KT P6SM -RA BKN040 OVC070
     FM211700 27004KT P6SM SCT040 OVC070=



000
FTUS46 KOTX 210303 AAA
TAFLWS
TAF AMD
KLWS 210303Z 2103/2124 30015G25KT 6SM BLDU SCT090 SCT150 BKN200
     FM210800 24004KT P6SM -RA BKN040 OVC070
     FM211000 24004KT 6SM +RA SCT020 OVC040
     FM211200 24004KT P6SM -RA BKN040 OVC070
     FM211700 27004KT P6SM SCT040 OVC070=



000
FTUS46 KOTX 210303 AAA
TAFLWS
TAF AMD
KLWS 210303Z 2103/2124 30015G25KT 6SM BLDU SCT090 SCT150 BKN200
     FM210800 24004KT P6SM -RA BKN040 OVC070
     FM211000 24004KT 6SM +RA SCT020 OVC040
     FM211200 24004KT P6SM -RA BKN040 OVC070
     FM211700 27004KT P6SM SCT040 OVC070=



000
FTUS46 KOTX 210303 AAA
TAFLWS
TAF AMD
KLWS 210303Z 2103/2124 30015G25KT 6SM BLDU SCT090 SCT150 BKN200
     FM210800 24004KT P6SM -RA BKN040 OVC070
     FM211000 24004KT 6SM +RA SCT020 OVC040
     FM211200 24004KT P6SM -RA BKN040 OVC070
     FM211700 27004KT P6SM SCT040 OVC070=



000
FTUS46 KOTX 210303 AAA
TAFLWS
TAF AMD
KLWS 210303Z 2103/2124 30015G25KT 6SM BLDU SCT090 SCT150 BKN200
     FM210800 24004KT P6SM -RA BKN040 OVC070
     FM211000 24004KT 6SM +RA SCT020 OVC040
     FM211200 24004KT P6SM -RA BKN040 OVC070
     FM211700 27004KT P6SM SCT040 OVC070=



000
FTUS46 KOTX 202328
TAFMWH
TAF
KMWH 202328Z 2100/2124 22007KT P6SM -RA BKN070 OVC100
     FM210200 22007KT 6SM RA SCT020 BKN050 OVC100
     FM210600 22006KT P6SM SCT120 BKN200
     FM211100 20005KT P6SM FEW025 SCT200=



000
FTUS46 KOTX 202328
TAFPUW
TAF
KPUW 202328Z 2100/2124 25008KT P6SM SCT060 SCT150 BKN200
     FM210300 26004KT P6SM SCT070 BKN100 OVC120
     FM210700 25003KT P6SM -RA SCT040 OVC060
     FM210900 25003KT 6SM +RA BKN020 OVC025
     FM211100 25003KT 5SM -RA BR SCT012 OVC020
     FM211600 26005KT 6SM BR OVC025=



000
FTUS46 KOTX 202328
TAFCOE
TAF
KCOE 202328Z 2100/2124 26009KT P6SM SCT060 SCT150 BKN200
     FM210300 22007KT P6SM SCT070 BKN090 OVC120
     FM210700 22007KT P6SM -RA SCT020 OVC040
     FM211000 23005KT 6SM +RA BR BKN020 OVC025
     FM211500 23006KT P6SM VCSH BKN018 OVC025
      AMD LTD TO CLD AND VIS=



000
FTUS46 KOTX 202328
TAFEAT
TAF
KEAT 202328Z 2100/2124 25005KT P6SM -RA BKN070 OVC100
     FM210300 30006KT P6SM VCSH SCT050 BKN100
     FM210600 31004KT P6SM SCT080
     FM211800 23006KT P6SM SCT250=



000
FTUS46 KOTX 202328
TAFGEG
TAF
KGEG 202328Z 2100/2124 26009KT P6SM SCT060 SCT150 BKN200
     FM210300 21008KT P6SM FEW050 BKN080 OVC120
     FM210600 21008KT P6SM -RA SCT020 BKN040 OVC060
     FM210900 21008KT 6SM +RA BKN020 OVC040
     FM211100 21008KT P6SM -RA SCT020 BKN040 OVC060
     FM211300 20008KT P6SM BKN025 OVC040=



000
FTUS46 KOTX 202328
TAFPUW
TAF
KPUW 202328Z 2100/2124 25008KT P6SM SCT060 SCT150 BKN200
     FM210300 26004KT P6SM SCT070 BKN100 OVC120
     FM210700 25003KT P6SM -RA SCT040 OVC060
     FM210900 25003KT 6SM +RA BKN020 OVC025
     FM211100 25003KT 5SM -RA BR SCT012 OVC020
     FM211600 26005KT 6SM BR OVC025=



000
FTUS46 KOTX 202328
TAFLWS
TAF
KLWS 202328Z 2100/2124 30006KT P6SM SCT090 SCT150 BKN200
     FM210300 24005KT P6SM SCT090 OVC120
     FM210800 24004KT P6SM -RA BKN040 OVC070
     FM211000 24004KT 6SM +RA SCT020 OVC040
     FM211200 24004KT P6SM -RA BKN040 OVC070
     FM211700 27004KT P6SM SCT040 OVC070=



000
FTUS46 KOTX 202328
TAFSFF
TAF
KSFF 202328Z 2100/2124 24008KT P6SM SCT060 SCT150 BKN200
     FM210300 21007KT P6SM FEW050 BKN080 OVC120
     FM210600 20004KT P6SM -RA SCT025 BKN040 OVC060
     FM210900 20004KT 6SM +RA BKN020 OVC040
     FM211100 20004KT P6SM -RA SCT025 BKN040 OVC060
     FM211300 21004KT P6SM VCSH OVC030=



000
FTUS46 KOTX 202328
TAFLWS
TAF
KLWS 202328Z 2100/2124 30006KT P6SM SCT090 SCT150 BKN200
     FM210300 24005KT P6SM SCT090 OVC120
     FM210800 24004KT P6SM -RA BKN040 OVC070
     FM211000 24004KT 6SM +RA SCT020 OVC040
     FM211200 24004KT P6SM -RA BKN040 OVC070
     FM211700 27004KT P6SM SCT040 OVC070=



000
FTUS46 KOTX 202328
TAFCOE
TAF
KCOE 202328Z 2100/2124 26009KT P6SM SCT060 SCT150 BKN200
     FM210300 22007KT P6SM SCT070 BKN090 OVC120
     FM210700 22007KT P6SM -RA SCT020 OVC040
     FM211000 23005KT 6SM +RA BR BKN020 OVC025
     FM211500 23006KT P6SM VCSH BKN018 OVC025
      AMD LTD TO CLD AND VIS=



000
FTUS46 KOTX 202328
TAFMWH
TAF
KMWH 202328Z 2100/2124 22007KT P6SM -RA BKN070 OVC100
     FM210200 22007KT 6SM RA SCT020 BKN050 OVC100
     FM210600 22006KT P6SM SCT120 BKN200
     FM211100 20005KT P6SM FEW025 SCT200=



000
FTUS46 KOTX 202328
TAFEAT
TAF
KEAT 202328Z 2100/2124 25005KT P6SM -RA BKN070 OVC100
     FM210300 30006KT P6SM VCSH SCT050 BKN100
     FM210600 31004KT P6SM SCT080
     FM211800 23006KT P6SM SCT250=



000
FTUS46 KOTX 202328
TAFSFF
TAF
KSFF 202328Z 2100/2124 24008KT P6SM SCT060 SCT150 BKN200
     FM210300 21007KT P6SM FEW050 BKN080 OVC120
     FM210600 20004KT P6SM -RA SCT025 BKN040 OVC060
     FM210900 20004KT 6SM +RA BKN020 OVC040
     FM211100 20004KT P6SM -RA SCT025 BKN040 OVC060
     FM211300 21004KT P6SM VCSH OVC030=



000
FTUS46 KOTX 202328
TAFGEG
TAF
KGEG 202328Z 2100/2124 26009KT P6SM SCT060 SCT150 BKN200
     FM210300 21008KT P6SM FEW050 BKN080 OVC120
     FM210600 21008KT P6SM -RA SCT020 BKN040 OVC060
     FM210900 21008KT 6SM +RA BKN020 OVC040
     FM211100 21008KT P6SM -RA SCT020 BKN040 OVC060
     FM211300 20008KT P6SM BKN025 OVC040=



000
FTUS46 KOTX 201739
TAFGEG
TAF
KGEG 201739Z 2018/2118 14004KT P6SM FEW150 SCT200
     FM202000 20009KT P6SM FEW150 BKN200
     FM210300 21008KT P6SM FEW050 BKN080 OVC120
     FM210600 21008KT P6SM -RA SCT020 BKN040 OVC060
     FM211300 20008KT P6SM BKN025 OVC040=



000
FTUS46 KOTX 201739
TAFLWS
TAF
KLWS 201739Z 2018/2118 07004KT P6SM SCT200
     FM202200 30006KT P6SM FEW150 BKN200
     FM210300 24005KT P6SM SCT090 OVC120
     FM210800 24004KT P6SM -RA BKN040 OVC070
     FM211700 27004KT P6SM SCT040 OVC070=



000
FTUS46 KOTX 201739
TAFCOE
TAF
KCOE 201739Z 2018/2118 10006KT P6SM FEW200
     FM202000 19009KT P6SM FEW150 BKN200
     FM210300 22007KT P6SM SCT070 BKN090 OVC120
     FM210700 22007KT P6SM -RA SCT020 OVC040
     FM211000 23005KT 6SM -RA BR SCT018 OVC025
     FM211500 23006KT P6SM VCSH BKN018 OVC025
      AMD LTD TO CLD AND VIS=



000
FTUS46 KOTX 201739
TAFMWH
TAF
KMWH 201739Z 2018/2118 13003KT P6SM FEW120 SCT200
     FM202000 22007KT P6SM SCT100 OVC150
     FM210000 22007KT P6SM VCSH SCT060 BKN080 OVC100
     FM210600 22006KT P6SM SCT120 BKN200
     FM211100 20005KT P6SM FEW025 SCT200=



000
FTUS46 KOTX 201739
TAFEAT
TAF
KEAT 201739Z 2018/2118 VRB03KT P6SM -SHRA SCT050 OVC070
     FM210100 30006KT P6SM VCSH SCT050 BKN100
     FM210400 31004KT P6SM SCT080=



000
FTUS46 KOTX 201739
TAFSFF
TAF
KSFF 201739Z 2018/2118 10008KT P6SM FEW150 SCT200
     FM202000 20008KT P6SM FEW150 BKN200
     FM210300 21007KT P6SM FEW050 BKN080 OVC120
     FM210600 20004KT P6SM -RA SCT025 BKN040 OVC060
     FM211300 21004KT P6SM VCSH OVC030=



000
FTUS46 KOTX 201739
TAFPUW
TAF
KPUW 201739Z 2018/2118 10010KT P6SM SCT200
     FM202100 25010KT P6SM FEW150 BKN200
     FM210300 26004KT P6SM SCT070 BKN100 OVC120
     FM210700 25003KT P6SM -RA SCT040 OVC060
     FM211100 25003KT 5SM -RA BR SCT012 OVC020
     FM211600 26005KT 6SM BR OVC025=



000
FTUS46 KOTX 201739
TAFLWS
TAF
KLWS 201739Z 2018/2118 07004KT P6SM SCT200
     FM202200 30006KT P6SM FEW150 BKN200
     FM210300 24005KT P6SM SCT090 OVC120
     FM210800 24004KT P6SM -RA BKN040 OVC070
     FM211700 27004KT P6SM SCT040 OVC070=



000
FTUS46 KOTX 201739
TAFCOE
TAF
KCOE 201739Z 2018/2118 10006KT P6SM FEW200
     FM202000 19009KT P6SM FEW150 BKN200
     FM210300 22007KT P6SM SCT070 BKN090 OVC120
     FM210700 22007KT P6SM -RA SCT020 OVC040
     FM211000 23005KT 6SM -RA BR SCT018 OVC025
     FM211500 23006KT P6SM VCSH BKN018 OVC025
      AMD LTD TO CLD AND VIS=



000
FTUS46 KOTX 201739
TAFEAT
TAF
KEAT 201739Z 2018/2118 VRB03KT P6SM -SHRA SCT050 OVC070
     FM210100 30006KT P6SM VCSH SCT050 BKN100
     FM210400 31004KT P6SM SCT080=



000
FTUS46 KOTX 201739
TAFGEG
TAF
KGEG 201739Z 2018/2118 14004KT P6SM FEW150 SCT200
     FM202000 20009KT P6SM FEW150 BKN200
     FM210300 21008KT P6SM FEW050 BKN080 OVC120
     FM210600 21008KT P6SM -RA SCT020 BKN040 OVC060
     FM211300 20008KT P6SM BKN025 OVC040=



000
FTUS46 KOTX 201739
TAFMWH
TAF
KMWH 201739Z 2018/2118 13003KT P6SM FEW120 SCT200
     FM202000 22007KT P6SM SCT100 OVC150
     FM210000 22007KT P6SM VCSH SCT060 BKN080 OVC100
     FM210600 22006KT P6SM SCT120 BKN200
     FM211100 20005KT P6SM FEW025 SCT200=



000
FTUS46 KOTX 201739
TAFSFF
TAF
KSFF 201739Z 2018/2118 10008KT P6SM FEW150 SCT200
     FM202000 20008KT P6SM FEW150 BKN200
     FM210300 21007KT P6SM FEW050 BKN080 OVC120
     FM210600 20004KT P6SM -RA SCT025 BKN040 OVC060
     FM211300 21004KT P6SM VCSH OVC030=



000
FTUS46 KOTX 201739
TAFPUW
TAF
KPUW 201739Z 2018/2118 10010KT P6SM SCT200
     FM202100 25010KT P6SM FEW150 BKN200
     FM210300 26004KT P6SM SCT070 BKN100 OVC120
     FM210700 25003KT P6SM -RA SCT040 OVC060
     FM211100 25003KT 5SM -RA BR SCT012 OVC020
     FM211600 26005KT 6SM BR OVC025=



000
FTUS46 KOTX 201652 AAC
TAFCOE
TAF AMD
KCOE 201652Z 2017/2112 10006KT P6SM FEW200
     FM202000 18011KT P6SM SCT120 OVC200
     FM210500 18007KT P6SM VCSH SCT050 OVC080
     FM210700 20009KT 6SM -RA BR SCT020 OVC040
      AMD LTD TO CLD AND VIS=



000
FTUS46 KOTX 201652 AAC
TAFCOE
TAF AMD
KCOE 201652Z 2017/2112 10006KT P6SM FEW200
     FM202000 18011KT P6SM SCT120 OVC200
     FM210500 18007KT P6SM VCSH SCT050 OVC080
     FM210700 20009KT 6SM -RA BR SCT020 OVC040
      AMD LTD TO CLD AND VIS=



000
FTUS46 KOTX 201531 AAB
TAFCOE
TAF AMD
KCOE 201531Z 2016/2112 12006KT 1 1/2SM BR BKN001
      TEMPO 2016/2017 1/4SM FG
     FM201700 13008KT 5SM BR SCT001
     FM201800 14010KT P6SM SCT200
     FM202000 18011KT P6SM SCT120 OVC200
     FM210500 18007KT P6SM VCSH SCT050 OVC080
     FM210700 20009KT 6SM -RA BR SCT020 OVC040
      AMD LTD TO CLD AND VIS=



000
FTUS46 KOTX 201531 AAB
TAFCOE
TAF AMD
KCOE 201531Z 2016/2112 12006KT 1 1/2SM BR BKN001
      TEMPO 2016/2017 1/4SM FG
     FM201700 13008KT 5SM BR SCT001
     FM201800 14010KT P6SM SCT200
     FM202000 18011KT P6SM SCT120 OVC200
     FM210500 18007KT P6SM VCSH SCT050 OVC080
     FM210700 20009KT 6SM -RA BR SCT020 OVC040
      AMD LTD TO CLD AND VIS=



000
FTUS46 KOTX 201358 AAA
TAFCOE
TAF AMD
KCOE 201358Z 2014/2112 10006KT 6SM BCFG SCT200
      TEMPO 2014/2017 2SM BR FEW004 SCT200
     FM202000 18011KT P6SM SCT120 OVC200
     FM210500 18007KT P6SM VCSH SCT050 OVC080
     FM210700 20009KT 6SM -RA BR SCT020 OVC040
      AMD LTD TO CLD AND VIS=



000
FTUS46 KOTX 201358 AAA
TAFCOE
TAF AMD
KCOE 201358Z 2014/2112 10006KT 6SM BCFG SCT200
      TEMPO 2014/2017 2SM BR FEW004 SCT200
     FM202000 18011KT P6SM SCT120 OVC200
     FM210500 18007KT P6SM VCSH SCT050 OVC080
     FM210700 20009KT 6SM -RA BR SCT020 OVC040
      AMD LTD TO CLD AND VIS=



000
FTUS46 KOTX 201144 CCA
TAFEAT
TAF COR
KEAT 201144Z 2012/2112 30008KT P6SM BCFG BKN200
      TEMPO 2012/2016 4SM BR
     FM201600 VRB03KT P6SM BKN150 OVC200
     FM201700 28006KT P6SM -RA SCT025 OVC060
     FM202300 28011KT P6SM VCSH SCT050 BKN120
     FM210400 31007KT P6SM SCT080 SCT120 BKN200=



000
FTUS46 KOTX 201144 CCA
TAFEAT
TAF COR
KEAT 201144Z 2012/2112 30008KT P6SM BCFG BKN200
      TEMPO 2012/2016 4SM BR
     FM201600 VRB03KT P6SM BKN150 OVC200
     FM201700 28006KT P6SM -RA SCT025 OVC060
     FM202300 28011KT P6SM VCSH SCT050 BKN120
     FM210400 31007KT P6SM SCT080 SCT120 BKN200=



000
FTUS46 KOTX 201139
TAFLWS
TAF
KLWS 201139Z 2012/2112 33003KT P6SM SCT200
     FM201800 05005KT P6SM BKN200
     FM210500 26006KT P6SM VCSH BKN090 OVC120
     FM210800 26004KT P6SM -RA BKN040 OVC070=



000
FTUS46 KOTX 201139
TAFGEG
TAF
KGEG 201139Z 2012/2112 07008KT P6SM FEW200
     FM202000 20011KT P6SM SCT120 OVC200
     FM210300 21008KT P6SM VCSH SCT050 OVC080
     FM210600 20009KT 6SM -RA BR SCT020 OVC040=



000
FTUS46 KOTX 201139
TAFSFF
TAF
KSFF 201139Z 2012/2112 00000KT P6SM SCT200
     FM202000 20007KT P6SM SCT120 OVC200
     FM210300 21005KT P6SM VCSH SCT050 OVC080
     FM210600 20004KT 6SM -RA BR SCT025 OVC040=



000
FTUS46 KOTX 201139
TAFCOE
TAF
KCOE 201139Z 2012/2112 07008KT P6SM SCT200
     FM202000 18011KT P6SM SCT120 OVC200
     FM210500 18007KT P6SM VCSH SCT050 OVC080
     FM210700 20009KT 6SM -RA BR SCT020 OVC040
      AMD LTD TO CLD AND VIS=



000
FTUS46 KOTX 201139
TAFPUW
TAF
KPUW 201139Z 2012/2112 09010KT P6SM SCT200
     FM202000 16012KT P6SM BKN200
     FM210500 20007KT P6SM VCSH BKN070 OVC100
     FM210700 25004KT 6SM -RA BR SCT025 OVC040=



000
FTUS46 KOTX 201139
TAFEAT
TAF
KEAT 201139Z 2012/2112 30008KT 4SM HZ SKC
     FM201500 VRB03KT P6SM BKN150 OVC200
     FM202100 28006KT P6SM -SHRA BKN060 BKN120 OVC200
     FM210500 31007KT P6SM VCSH SCT080 SCT120 BKN200=



000
FTUS46 KOTX 201139
TAFMWH
TAF
KMWH 201139Z 2012/2112 35004KT 6SM BCFG SCT200
      TEMPO 2012/2016 4SM BR
     FM201800 23005KT P6SM BKN080 OVC200
     FM202300 22006KT P6SM VCSH SCT040 OVC080
      TEMPO 2101/2105 P6SM -RA BKN040 OVC060
     FM210800 23006KT P6SM SCT025 OVC050=



000
FTUS46 KOTX 201139
TAFMWH
TAF
KMWH 201139Z 2012/2112 35004KT 6SM BCFG SCT200
      TEMPO 2012/2016 4SM BR
     FM201800 23005KT P6SM BKN080 OVC200
     FM202300 22006KT P6SM VCSH SCT040 OVC080
      TEMPO 2101/2105 P6SM -RA BKN040 OVC060
     FM210800 23006KT P6SM SCT025 OVC050=



000
FTUS46 KOTX 201139
TAFPUW
TAF
KPUW 201139Z 2012/2112 09010KT P6SM SCT200
     FM202000 16012KT P6SM BKN200
     FM210500 20007KT P6SM VCSH BKN070 OVC100
     FM210700 25004KT 6SM -RA BR SCT025 OVC040=



000
FTUS46 KOTX 201139
TAFCOE
TAF
KCOE 201139Z 2012/2112 07008KT P6SM SCT200
     FM202000 18011KT P6SM SCT120 OVC200
     FM210500 18007KT P6SM VCSH SCT050 OVC080
     FM210700 20009KT 6SM -RA BR SCT020 OVC040
      AMD LTD TO CLD AND VIS=



000
FTUS46 KOTX 201139
TAFGEG
TAF
KGEG 201139Z 2012/2112 07008KT P6SM FEW200
     FM202000 20011KT P6SM SCT120 OVC200
     FM210300 21008KT P6SM VCSH SCT050 OVC080
     FM210600 20009KT 6SM -RA BR SCT020 OVC040=



000
FTUS46 KOTX 201139
TAFEAT
TAF
KEAT 201139Z 2012/2112 30008KT 4SM HZ SKC
     FM201500 VRB03KT P6SM BKN150 OVC200
     FM202100 28006KT P6SM -SHRA BKN060 BKN120 OVC200
     FM210500 31007KT P6SM VCSH SCT080 SCT120 BKN200=



000
FTUS46 KOTX 201139
TAFSFF
TAF
KSFF 201139Z 2012/2112 00000KT P6SM SCT200
     FM202000 20007KT P6SM SCT120 OVC200
     FM210300 21005KT P6SM VCSH SCT050 OVC080
     FM210600 20004KT 6SM -RA BR SCT025 OVC040=



000
FTUS46 KOTX 201139
TAFLWS
TAF
KLWS 201139Z 2012/2112 33003KT P6SM SCT200
     FM201800 05005KT P6SM BKN200
     FM210500 26006KT P6SM VCSH BKN090 OVC120
     FM210800 26004KT P6SM -RA BKN040 OVC070=



    US Dept of Commerce
    National Oceanic and Atmospheric Administration
    National Weather Service
    1325 East West Highway
    Silver Spring, MD 20910
    Page Author: NWS Internet Services Team
Disclaimer
Information Quality
Credits
Glossary
Privacy Policy
Freedom of Information Act (FOIA)
About Us
Career Opportunities